Time;durP1;ratioP1;P1;durP2;ratioP2;P2;SDS_P1;SDS_P2;PMS_P1;PMS_P2;Temp;Humidity;BMP_temperature;BMP_pressure;BME280_temperature;BME280_humidity;BME280_pressure;Samples;Min_cycle;Max_cycle;Signal;HPM_P1;HPM_P2
2023/08/21 00:00:11;;;;;;;7.25;4.57;;;;;;;20.34;100.00;101405.16;5069707;28;20077;-80
2023/08/21 00:02:37;;;;;;;9.43;4.65;;;;;;;20.35;100.00;101407.66;5069524;28;20045;-80
2023/08/21 00:05:04;;;;;;;9.30;4.78;;;;;;;20.26;100.00;101389.84;5052177;28;20098;-80
2023/08/21 00:07:30;;;;;;;7.75;4.78;;;;;;;20.17;100.00;101392.28;5066546;28;20055;-80
2023/08/21 00:09:56;;;;;;;8.25;4.63;;;;;;;20.09;100.00;101381.66;5067214;28;20056;-80
2023/08/21 00:12:22;;;;;;;8.43;4.70;;;;;;;19.91;100.00;101380.97;5054642;28;20604;-80
2023/08/21 00:14:48;;;;;;;7.38;4.97;;;;;;;19.77;100.00;101377.75;5050258;28;20388;-80
2023/08/21 00:17:14;;;;;;;9.90;5.18;;;;;;;19.62;100.00;101372.88;5066038;28;20040;-80
2023/08/21 00:19:40;;;;;;;8.25;5.18;;;;;;;19.51;100.00;101368.34;5069490;28;20179;-80
2023/08/21 00:22:06;;;;;;;9.15;4.85;;;;;;;19.46;100.00;101354.44;5069090;28;20057;-80
2023/08/21 00:24:32;;;;;;;11.02;5.53;;;;;;;19.46;100.00;101354.44;5052081;28;20037;-80
2023/08/21 00:26:59;;;;;;;8.23;4.93;;;;;;;19.41;100.00;101344.16;5069313;28;20056;-80
2023/08/21 00:29:25;;;;;;;12.27;5.30;;;;;;;19.45;100.00;101333.41;5067756;28;20025;-80
2023/08/21 00:31:51;;;;;;;7.90;4.90;;;;;;;19.39;100.00;101329.75;5064917;28;20078;-80
2023/08/21 00:34:17;;;;;;;10.32;4.97;;;;;;;19.32;100.00;101334.66;5048158;28;20028;-80
2023/08/21 00:36:43;;;;;;;6.60;4.90;;;;;;;19.23;100.00;101326.81;5035697;28;20109;-80
2023/08/21 00:39:09;;;;;;;7.85;4.78;;;;;;;19.11;100.00;101324.19;5050438;28;20036;-81
2023/08/21 00:41:35;;;;;;;10.73;4.65;;;;;;;19.01;100.00;101309.41;5069281;28;20044;-80
2023/08/21 00:44:01;;;;;;;7.88;4.93;;;;;;;18.89;100.00;101307.56;5046654;28;20036;-80
2023/08/21 00:46:27;;;;;;;10.35;4.97;;;;;;;18.82;100.00;101296.69;5050742;28;20064;-80
2023/08/21 00:48:54;;;;;;;7.55;4.45;;;;;;;18.72;100.00;101279.16;5065167;28;20071;-81
2023/08/21 00:51:20;;;;;;;9.00;5.47;;;;;;;18.63;100.00;101273.25;5050526;28;20140;-80
2023/08/21 00:53:46;;;;;;;9.68;5.40;;;;;;;18.55;100.00;101266.22;5052799;28;20396;-80
2023/08/21 00:56:13;;;;;;;11.15;5.82;;;;;;;18.50;100.00;101247.66;5036571;28;20067;-80
2023/08/21 00:58:39;;;;;;;10.52;5.55;;;;;;;18.38;100.00;101233.13;5050965;28;20098;-80
2023/08/21 01:01:05;;;;;;;11.20;6.10;;;;;;;18.27;100.00;101218.34;5036221;28;20468;-80
2023/08/21 01:03:31;;;;;;;11.00;6.25;;;;;;;18.21;100.00;101205.56;5049582;28;20044;-80
2023/08/21 01:05:58;;;;;;;10.38;6.40;;;;;;;18.12;100.00;101183.06;5048154;28;20387;-80
2023/08/21 01:08:47;;;;;;;12.80;6.78;;;;;;;18.05;100.00;101171.38;5065055;28;20044;-80
2023/08/21 01:11:29;;;;;;;8.70;6.32;;;;;;;17.98;100.00;101153.03;5067566;28;20416;-80
2023/08/21 01:14:14;;;;;;;10.65;7.13;;;;;;;17.96;100.00;101148.88;5046604;28;20388;-79
2023/08/21 01:16:42;;;;;;;13.02;7.05;;;;;;;17.94;100.00;101146.34;5050623;28;20036;-79
2023/08/21 01:19:37;;;;;;;11.80;7.43;;;;;;;17.87;100.00;101128.28;5064794;28;20047;-79
2023/08/21 01:22:03;;;;;;;14.18;7.65;;;;;;;17.92;100.00;101143.00;5043613;28;20421;-79
2023/08/21 01:24:30;;;;;;;13.50;7.95;;;;;;;17.92;100.00;101129.22;5032395;28;20044;-80
2023/08/21 01:26:56;;;;;;;12.45;7.10;;;;;;;17.82;100.00;101126.31;5047712;28;20223;-79
2023/08/21 01:29:23;;;;;;;8.55;6.90;;;;;;;17.79;100.00;101126.84;5064905;28;20463;-79
2023/08/21 01:32:10;;;;;;;11.73;8.07;;;;;;;17.71;100.00;101130.84;5066849;28;20424;-80
2023/08/21 01:34:38;;;;;;;10.32;6.95;;;;;;;17.55;100.00;101129.78;5054930;28;20055;-80
2023/08/21 01:37:06;;;;;;;14.98;7.97;;;;;;;17.39;100.00;101118.50;5061966;28;20041;-80
2023/08/21 01:39:32;;;;;;;10.55;7.30;;;;;;;17.30;100.00;101109.00;5049502;28;20029;-80
2023/08/21 01:41:59;;;;;;;12.30;7.35;;;;;;;17.33;100.00;101111.25;5048639;28;20090;-80
2023/08/21 01:44:26;;;;;;;13.00;7.72;;;;;;;17.35;100.00;101106.31;5063604;28;20522;-80
2023/08/21 01:46:53;;;;;;;14.95;8.18;;;;;;;17.32;100.00;101101.28;5037180;28;20040;-80
2023/08/21 01:49:19;;;;;;;13.30;7.53;;;;;;;17.29;100.00;101103.72;5062005;28;20102;-80
2023/08/21 01:51:46;;;;;;;13.18;6.97;;;;;;;17.19;100.00;101102.47;5066744;28;20034;-80
2023/08/21 01:54:12;;;;;;;11.82;7.93;;;;;;;17.14;100.00;101090.50;5068108;28;20035;-80
2023/08/21 01:56:38;;;;;;;10.30;7.63;;;;;;;17.09;100.00;101088.50;5043236;28;20041;-80
2023/08/21 01:59:06;;;;;;;10.75;7.85;;;;;;;17.02;100.00;101069.41;5042974;28;20496;-80
2023/08/21 02:01:33;;;;;;;10.27;7.65;;;;;;;16.98;100.00;101073.75;5066961;28;20029;-80
2023/08/21 02:03:59;;;;;;;13.93;8.55;;;;;;;16.95;100.00;101074.19;5068028;28;20067;-80
2023/08/21 02:06:25;;;;;;;11.43;8.13;;;;;;;16.99;100.00;101064.38;5046192;28;20028;-80
2023/08/21 02:08:52;;;;;;;12.40;8.93;;;;;;;17.04;100.00;101045.16;5048997;28;20033;-80
2023/08/21 02:11:18;;;;;;;11.30;8.23;;;;;;;17.00;100.00;101057.78;5068034;28;20048;-80
2023/08/21 02:13:44;;;;;;;12.45;8.82;;;;;;;17.00;100.00;101063.28;5068735;28;20049;-80
2023/08/21 02:16:10;;;;;;;13.90;8.85;;;;;;;16.97;100.00;101066.50;5055112;28;20037;-80
2023/08/21 02:18:36;;;;;;;15.73;8.40;;;;;;;16.99;100.00;101064.38;5041304;28;20165;-80
2023/08/21 02:21:02;;;;;;;16.27;8.90;;;;;;;16.99;100.00;101067.13;5043710;28;20044;-80
2023/08/21 02:23:31;;;;;;;10.52;7.97;;;19.00;99.90;;;16.98;100.00;101068.22;5060607;28;20523;-80
2023/08/21 02:25:57;;;;;;;14.55;9.52;;;16.60;99.90;;;16.92;100.00;101052.63;5065587;28;20045;-80
2023/08/21 02:28:23;;;;;;;13.63;8.98;;;15.80;99.90;;;16.96;100.00;101071.19;5065724;28;20047;-80
2023/08/21 02:30:48;;;;;;;11.77;8.60;;;15.80;99.90;;;16.97;100.00;101058.22;5067480;28;20040;-80
2023/08/21 02:33:14;;;;;;;11.05;8.38;;;15.80;99.90;;;16.85;100.00;101074.00;5060756;28;20532;-80
2023/08/21 02:35:40;;;;;;;12.65;8.90;;;15.70;99.90;;;16.65;100.00;101083.56;5063550;28;20037;-80
2023/08/21 02:38:05;;;;;;;10.70;8.88;;;15.50;99.90;;;16.64;100.00;101096.53;5064069;28;20043;-80
2023/08/21 02:40:35;;;;;;;13.25;9.07;;;15.50;99.90;;;16.58;100.00;101091.16;5067323;28;20029;-80
2023/08/21 02:43:01;;;;;;;16.20;9.25;;;15.40;99.90;;;16.64;100.00;101087.41;5049702;28;20029;-80
2023/08/21 02:45:27;;;;;;;13.50;9.32;;;15.40;99.90;;;16.57;100.00;101043.50;5039907;28;20041;-80
2023/08/21 02:47:52;;;;;;;15.15;10.55;;;15.50;99.90;;;16.79;100.00;101027.09;5063099;28;20249;-80
2023/08/21 02:50:18;;;;;;;14.27;10.70;;;15.60;99.90;;;16.82;100.00;101000.94;5044178;28;20430;-80
2023/08/21 02:52:44;;;;;;;12.68;9.50;;;15.70;99.90;;;16.78;100.00;101017.16;5050262;28;20121;-80
2023/08/21 02:55:10;;;;;;;11.60;9.05;;;15.60;99.90;;;16.78;100.00;101032.84;5049493;28;20032;-80
2023/08/21 02:57:35;;;;;;;16.02;9.38;;;15.50;99.90;;;16.76;100.00;101024.00;5065329;28;20059;-80
2023/08/21 03:00:02;;;;;;;13.98;9.35;;;15.60;99.90;;;16.83;100.00;101035.66;5050372;28;20048;-80
2023/08/21 03:02:28;;;;;;;15.77;8.65;;;15.60;99.90;;;16.71;100.00;101045.94;5066126;28;20041;-80
2023/08/21 03:04:53;;;;;;;17.30;9.23;;;15.50;99.90;;;16.59;100.00;101059.78;5042201;28;20037;-80
2023/08/21 03:07:19;;;;;;;15.75;9.10;;;15.40;99.90;;;16.59;100.00;101049.63;5048109;28;20381;-80
2023/08/21 03:09:47;;;;;;;13.07;9.25;;;15.40;99.90;;;16.59;100.00;101032.25;5040685;28;20504;-80
2023/08/21 03:12:13;;;;;;;15.70;9.23;;;15.40;99.90;;;16.64;100.00;101035.06;5036293;28;20375;-80
2023/08/21 03:14:38;;;;;;;12.02;8.50;;;15.40;99.90;;;16.63;100.00;101036.16;5055596;28;20501;-80
2023/08/21 03:17:04;;;;;;;13.35;8.85;;;15.40;99.90;;;16.65;100.00;101042.25;5059743;28;20098;-80
2023/08/21 03:19:30;;;;;;;15.05;10.00;;;15.40;99.90;;;16.62;100.00;101023.47;5051567;28;20036;-80
2023/08/21 03:21:56;;;;;;;14.38;10.32;;;15.50;99.90;;;16.70;100.00;101025.00;5046932;28;20149;-80
2023/08/21 03:24:22;;;;;;;14.40;10.75;;;15.50;99.90;;;16.75;100.00;101012.16;5062060;28;20059;-80
2023/08/21 03:26:48;;;;;;;12.90;9.38;;;15.60;99.90;;;16.81;100.00;101015.81;5061815;28;20478;-80
2023/08/21 03:29:14;;;;;;;15.52;9.27;;;15.60;99.90;;;16.73;100.00;101021.72;5046952;28;20029;-80
2023/08/21 03:31:41;;;;;;;13.10;9.20;;;15.50;99.90;;;16.67;100.00;101031.81;5066764;28;20035;-80
2023/08/21 03:34:08;;;;;;;12.18;8.63;;;15.40;99.90;;;16.65;100.00;101042.25;5045954;28;20040;-80
2023/08/21 03:36:36;;;;;;;13.70;8.73;;;15.40;99.90;;;16.60;100.00;101037.50;5064943;28;20043;-80
2023/08/21 03:39:04;;;;;;;;;;;15.40;99.90;;;16.66;100.00;101035.66;5047569;28;20398;-81
2023/08/21 03:41:33;;;;;;;13.57;8.90;;;15.40;99.90;;;16.70;100.00;101036.00;5057722;28;19916;-80
2023/08/21 03:43:59;;;;;;;13.88;8.75;;;15.50;99.90;;;16.77;100.00;101032.03;5047863;28;20096;-80
2023/08/21 03:46:25;;;;;;;12.88;8.50;;;15.50;99.90;;;16.72;100.00;101023.66;5058355;28;20044;-80
2023/08/21 03:48:52;;;;;;;12.50;8.30;;;15.50;99.90;;;16.71;100.00;101030.25;5043876;28;20469;-81
2023/08/21 03:51:17;;;;;;;13.70;8.07;;;15.50;99.90;;;16.71;100.00;101040.44;5070224;28;20052;-81
2023/08/21 03:53:43;;;;;;;14.32;8.23;;;15.50;99.90;;;16.62;100.00;101023.47;5070734;28;20565;-82
2023/08/21 03:56:09;;;;;;;11.80;8.48;;;15.60;99.90;;;16.92;100.00;101025.06;5059751;28;20032;-81
2023/08/21 03:58:35;;;;;;;14.43;8.73;;;15.70;99.90;;;17.01;100.00;101028.28;5068056;28;20097;-81
2023/08/21 04:01:01;;;;;;;16.23;8.48;;;15.80;99.90;;;17.16;100.00;101047.00;5057605;28;20029;-81
2023/08/21 04:03:26;;;;;;;11.93;8.18;;;15.90;99.90;;;17.23;100.00;101047.66;5054416;28;20048;-81
2023/08/21 04:05:58;;;;;;;14.70;8.10;;;15.90;99.90;;;17.24;100.00;101043.84;5054139;28;20035;-81
2023/08/21 04:08:25;;;;;;;11.43;7.82;;;15.90;99.90;;;17.16;100.00;101044.22;5052828;28;20028;-80
2023/08/21 04:10:52;;;;;;;13.10;8.20;;;15.90;99.90;;;17.16;100.00;101052.50;5062792;28;20047;-80
2023/08/21 04:13:19;;;;;;;15.70;8.23;;;15.90;99.90;;;17.18;100.00;101037.41;5069048;28;20369;-80
2023/08/21 04:15:46;;;;;;;13.43;7.70;;;15.90;99.90;;;17.23;100.00;101045.75;5048121;28;20032;-80
2023/08/21 04:18:13;;;;;;;14.63;7.05;;;15.90;99.90;;;17.23;100.00;101039.38;5063355;28;20111;-79
2023/08/21 04:20:38;;;;;;;11.95;7.85;;;15.90;99.90;;;17.28;100.00;101042.22;5060976;28;20570;-80
2023/08/21 04:23:07;;;;;;;12.52;8.45;;;15.90;99.90;;;17.33;100.00;101052.47;5045320;28;20055;-80
2023/08/21 04:25:32;;;;;;;14.05;8.10;;;16.00;99.90;;;17.44;100.00;101057.09;5054692;28;20420;-80
2023/08/21 04:27:58;;;;;;;12.80;7.68;;;16.10;99.90;;;17.50;100.00;101067.09;5055681;28;20396;-80
2023/08/21 04:30:24;;;;;;;10.10;6.90;;;16.10;99.90;;;17.54;100.00;101081.22;5055666;28;20052;-80
2023/08/21 04:32:50;;;;;;;10.85;7.30;;;16.20;99.90;;;17.58;100.00;101087.06;5056261;28;20032;-79
2023/08/21 04:35:16;;;;;;;11.23;7.05;;;16.20;99.90;;;17.61;100.00;101103.09;5060951;28;20033;-80
2023/08/21 04:37:49;;;;;;;10.60;6.93;;;16.20;99.90;;;17.55;100.00;101116.00;5055384;28;20036;-80
2023/08/21 04:40:20;;;;;;;12.30;7.10;;;16.30;99.90;;;17.68;100.00;101151.50;5058177;28;20164;-79
2023/08/21 04:42:46;;;;;;;10.32;6.63;;;16.40;99.90;;;17.68;100.00;101179.09;5052772;28;20128;-80
2023/08/21 04:45:13;;;;;;;10.80;6.30;;;16.50;99.90;;;17.86;100.00;101204.75;5055834;28;20024;-81
2023/08/21 04:47:39;;;;;;;12.38;6.53;;;16.60;99.90;;;18.02;100.00;101218.78;5045198;28;20125;-82
2023/08/21 04:50:06;;;;;;;11.25;6.20;;;16.80;99.90;;;18.15;100.00;101240.53;5056390;28;20041;-82
2023/08/21 04:52:32;;;;;;;12.07;5.75;;;17.00;99.90;;;18.21;100.00;101264.38;5056173;28;20041;-83
2023/08/21 04:54:59;;;;;;;10.32;5.88;;;17.20;99.90;;;18.35;100.00;101266.78;5044515;28;20035;-83
2023/08/21 04:57:26;;;;;;;10.60;5.32;;;17.40;99.90;;;18.43;100.00;101280.16;5062853;28;20115;-82
2023/08/21 04:59:53;;;;;;;12.82;5.45;;;17.40;99.90;;;18.39;100.00;101293.63;5024684;28;20091;-80
2023/08/21 05:02:21;;;;;;;9.05;5.35;;;17.50;99.90;;;18.52;100.00;101297.13;5043579;28;20025;-82
2023/08/21 05:04:49;;;;;;;13.68;5.45;;;17.50;99.90;;;18.67;100.00;101300.09;5066099;28;20040;-81
2023/08/21 05:07:15;;;;;;;10.65;5.40;;;17.50;99.90;;;18.71;100.00;101318.94;5055132;28;20036;-82
2023/08/21 05:09:41;;;;;;;11.75;5.60;;;;;;;18.87;100.00;101328.28;5060462;28;20029;-85
2023/08/21 05:12:09;;;;;;;10.95;6.30;;;;;;;18.95;100.00;101336.13;5071090;28;20061;-85
2023/08/21 05:14:36;;;;;;;12.63;6.20;;;;;;;19.09;100.00;101348.47;5060618;28;20112;-87
2023/08/21 05:17:03;;;;;;;11.45;5.80;;;;;;;19.22;100.00;101360.25;5069330;28;20028;-88
2023/08/21 05:19:29;;;;;;;10.98;5.60;;;;;;;19.33;100.00;101373.09;5066555;28;20052;-88
2023/08/21 05:21:56;;;;;;;10.30;5.47;;;;;;;19.35;100.00;101375.63;5058512;28;20025;-86
2023/08/21 05:24:23;;;;;;;9.40;5.45;;;;;;;19.24;100.00;101382.97;5058672;28;20090;-86
2023/08/21 05:26:56;;;;;;;12.63;5.25;;;;;;;19.19;100.00;101369.91;5054623;28;20108;-87
2023/08/21 05:29:23;;;;;;;11.52;5.50;;;;;;;19.20;100.00;101373.50;5031287;28;20041;-86
2023/08/21 05:31:50;;;;;;;8.03;5.47;;;;;;;19.22;100.00;101374.09;5057605;28;20362;-88
2023/08/21 05:34:16;;;;;;;9.60;5.20;;;;;;;19.43;100.00;101379.88;5061621;28;20036;-85
2023/08/21 05:36:42;;;;;;;12.52;5.78;;;;;;;19.36;100.00;101380.06;5053856;28;20069;-91
2023/08/21 05:39:08;;;;;;;15.15;5.47;;;;;;;19.51;100.00;101390.47;5044721;28;20021;-87
2023/08/21 05:41:35;;;;;;;12.13;5.43;;;;;;;19.59;100.00;101401.06;5047328;28;20068;-85
2023/08/21 05:44:02;;;;;;;13.38;5.97;;;;;;;19.69;100.00;101406.75;5057727;28;20293;-85
2023/08/21 05:46:29;;;;;;;8.48;4.85;;;;;;;19.73;100.00;101412.56;5032085;28;20107;-86
2023/08/21 05:48:56;;;;;;;10.00;5.18;;;;;;;19.91;100.00;101414.19;5046119;28;20036;-85
2023/08/21 05:51:22;;;;;;;11.68;5.15;;;;;;;20.00;100.00;101420.06;5050192;28;20032;-86
2023/08/21 05:53:49;;;;;;;9.55;5.15;;;;;;;20.00;100.00;101433.09;5059924;28;20408;-88
2023/08/21 05:56:16;;;;;;;12.75;5.60;;;;;;;19.91;100.00;101435.50;5073838;28;20033;-85
2023/08/21 05:58:42;;;;;;;17.13;5.20;;;;;;;19.97;100.00;101446.38;5064388;28;20021;-87
2023/08/21 06:01:08;;;;;;;13.13;4.90;;;;;;;20.09;100.00;101443.44;5056515;28;20056;-85
2023/08/21 06:03:34;;;;;;;14.70;5.05;;;;;;;20.20;100.00;101455.47;5046259;28;20517;-86
2023/08/21 06:06:06;;;;;;;15.35;5.47;;;;;;;20.23;100.00;101454.94;5055378;28;20041;-87
2023/08/21 06:08:32;;;;;;;14.23;5.13;;;;;;;20.26;100.00;101462.72;5067673;28;20029;-86
2023/08/21 06:10:59;;;;;;;14.20;5.30;;;;;;;20.29;100.00;101466.06;5070563;28;20032;-87
2023/08/21 06:13:26;;;;;;;14.77;4.70;;;;;;;20.48;100.00;101467.34;5056331;28;20045;-86
2023/08/21 06:15:54;;;;;;;15.10;4.82;;;;;;;20.53;100.00;101475.69;5048553;28;20476;-86
2023/08/21 06:18:22;;;;;;;12.95;4.90;;;;;;;20.81;100.00;101473.72;5050742;28;20041;-89
2023/08/21 06:20:53;;;;;;;15.40;5.30;;;;;;;20.96;100.00;101484.09;5042598;28;20509;-87
2023/08/21 06:23:22;;;;;;;14.80;4.60;;;;;;;21.11;100.00;101485.31;5059956;28;20645;-89
2023/08/21 06:25:50;;;;;;;12.55;4.60;;;;;;;21.26;100.00;101492.88;5046303;28;20041;-87
2023/08/21 06:28:17;;;;;;;12.32;4.15;;;;;;;21.51;100.00;101499.66;5063006;28;20040;-87
2023/08/21 06:30:43;;;;;;;14.75;3.95;;;;;;;21.51;100.00;101499.66;5035473;28;20041;-89
2023/08/21 06:33:09;;;;;;;15.93;4.25;;;;;;;21.82;100.00;101499.81;5046119;28;20400;-87
2023/08/21 06:35:39;;;;;;;9.32;4.28;;;;;;;21.98;100.00;101509.03;5060926;28;20377;-87
2023/08/21 06:38:06;;;;;;;11.88;4.05;;;;;;;21.99;100.00;101505.97;5057182;28;20021;-87
2023/08/21 06:40:33;;;;;;;15.07;4.22;;;;;;;22.01;100.00;101507.63;5046416;28;20479;-86
2023/08/21 06:42:59;;;;;;;14.63;3.70;;;;;;;21.83;100.00;101509.81;5069349;28;20084;-87
2023/08/21 06:45:32;;;;;;;15.13;3.50;;;;;;;22.10;100.00;101506.00;5059372;28;20033;-88
2023/08/21 06:47:59;;;;;;;9.43;3.75;;;;;;;22.41;100.00;101518.03;5056229;28;20035;-87
2023/08/21 06:50:25;;;;;;;15.07;3.95;;;;;;;22.65;100.00;101516.66;5071316;28;20451;-88
2023/08/21 06:52:51;;;;;;;14.20;3.78;;;;;;;22.72;100.00;101514.44;5065782;28;20037;-87
2023/08/21 06:55:17;;;;;;;16.00;4.20;;;;;;;22.70;100.00;101514.72;5052760;28;20036;-85
2023/08/21 06:57:43;;;;;;;16.63;4.00;;;;;;;22.43;100.00;101514.97;5056556;28;20062;-87
2023/08/21 07:00:10;;;;;;;19.48;4.03;;;;;;;22.41;100.00;101520.81;5051829;28;20090;-86
2023/08/21 07:02:36;;;;;;;17.50;4.68;;;;;;;22.74;100.00;101533.63;5060642;28;20051;-87
2023/08/21 07:05:02;;;;;;;15.35;4.10;;;;;;;23.02;100.00;101535.00;5053209;28;20060;-88
2023/08/21 07:07:29;;;;;;;13.57;3.45;;;;;;;23.12;100.00;101535.00;5050827;28;20047;-87
2023/08/21 07:09:55;;;;;;;15.35;3.58;;;;;;;23.19;100.00;101543.03;5056202;28;20116;-86
2023/08/21 07:12:22;;;;;;;13.30;3.20;;;;;;;22.92;100.00;101540.59;5071341;28;20392;-86
2023/08/21 07:14:48;;;;;;;17.83;3.75;;;;;;;23.16;100.00;101545.56;5043496;28;20045;-86
2023/08/21 07:17:14;;;;;;;10.45;2.47;;;;;;;23.03;100.00;101539.44;5042819;28;20090;-90
2023/08/21 07:19:41;;;;;;;10.40;2.70;;;;;;;22.94;100.00;101536.41;5053513;28;20467;-86
2023/08/21 07:22:07;;;;;;;10.85;3.30;;;;;;;23.16;100.00;101540.00;5068904;28;20544;-86
2023/08/21 07:24:34;;;;;;;10.35;3.45;;;;;;;23.18;100.00;101532.22;5053336;28;20051;-86
2023/08/21 07:27:00;;;;;;;10.00;2.80;;;;;;;22.91;100.00;101536.13;5070124;28;20040;-92
2023/08/21 07:29:26;;;;;;;7.07;2.70;;;;;;;22.67;100.00;101537.50;5067933;28;20036;-85
2023/08/21 07:31:52;;;;;;;8.82;2.55;;;;;;;22.62;100.00;101539.47;5061547;28;20074;-85
2023/08/21 07:34:18;;;;;;;7.90;2.30;;;;;;;22.50;100.00;101534.19;5058591;28;20075;-90
2023/08/21 07:36:46;;;;;;;10.85;2.58;;;;;;;22.58;100.00;101538.38;5047996;28;20051;-91
2023/08/21 07:39:12;;;;;;;9.05;2.38;;;;;;;22.65;100.00;101544.47;5064127;28;20105;-89
2023/08/21 07:41:38;;;;;;;10.70;3.20;;;;;;;22.88;100.00;101543.06;5071318;28;20714;-92
2023/08/21 07:44:04;;;;;;;9.25;2.78;;;;;;;23.22;100.00;101547.22;5069386;28;20033;-88
2023/08/21 07:46:31;;;;;;;10.15;2.20;;;;;;;23.46;100.00;101544.69;5047133;28;20041;-89
2023/08/21 07:48:57;;;;;;;8.15;2.00;;;;;;;23.39;100.00;101547.78;5072989;28;20032;-93
2023/08/21 07:51:23;;;;;;;6.82;2.08;;;;;;;23.23;100.00;101557.25;5037512;28;20036;-90
2023/08/21 07:53:49;;;;;;;8.25;2.22;;;;;;;23.17;100.00;101561.97;5061228;28;20072;-91
2023/08/21 07:56:15;;;;;;;7.13;1.98;;;;;;;23.20;100.00;101555.84;5063379;28;20114;-87
2023/08/21 07:58:41;;;;;;;9.15;2.10;;;;;;;22.95;100.00;101565.91;5060166;28;20055;-88
2023/08/21 08:01:07;;;;;;;8.85;2.10;;;;;;;22.96;100.00;101561.16;5061734;28;20039;-87
2023/08/21 08:03:34;;;;;;;7.57;2.00;;;;;;;23.05;100.00;101559.47;5073136;28;20017;-88
2023/08/21 08:06:01;;;;;;;8.90;1.90;;;;;;;22.94;100.00;101577.31;5081395;28;20065;-90
2023/08/21 08:08:29;;;;;;;10.23;2.53;;;;;;;23.47;100.00;101560.28;5074486;28;20048;-88
2023/08/21 08:10:55;;;;;;;;;;;;;;;23.46;100.00;101569.75;5070699;28;20044;-88
2023/08/21 08:13:21;;;;;;;6.10;2.00;;;;;;;23.66;100.00;101556.88;5072806;28;19966;-88
2023/08/21 08:15:47;;;;;;;8.35;2.22;;;;;;;23.78;100.00;101557.41;5055176;28;20088;-89
2023/08/21 08:18:13;;;;;;;7.43;2.55;;;;;;;23.76;100.00;101556.88;5085098;28;20028;-89
2023/08/21 08:20:40;;;;;;;9.68;2.20;;;;;;;23.33;100.00;101562.00;5084295;28;20040;-90
2023/08/21 08:23:07;;;;;;;7.90;2.23;;;;;;;23.72;100.00;101560.50;5085981;28;20036;-85
2023/08/21 08:25:33;;;;;;;8.52;2.42;;;;;;;24.06;100.00;101555.09;5082971;28;20048;-90
2023/08/21 08:27:59;;;;;;;10.10;2.40;;;;;;;23.66;100.00;101563.31;5076469;28;20033;-88
2023/08/21 08:30:26;;;;;;;8.35;2.20;;;;;;;23.31;100.00;101558.66;5071720;28;20512;-89
2023/08/21 08:32:52;;;;;;;7.13;2.30;;;;;;;23.24;100.00;101562.53;5061634;28;20114;-85
2023/08/21 08:35:18;;;;;;;8.82;2.72;;;;;;;23.68;100.00;101549.91;5065190;28;20112;-87
2023/08/21 08:37:44;;;;;;;7.30;2.33;;;;;;;24.09;100.00;101557.28;5064898;28;20051;-83
2023/08/21 08:40:14;;;;;;;9.23;2.35;;;;;;;25.04;100.00;101556.34;5053026;28;20116;-88
2023/08/21 08:42:41;;;;;;;6.10;1.80;;;;;;;24.60;100.00;101557.25;5072287;28;20048;-87
2023/08/21 08:45:08;;;;;;;6.15;1.80;;;;;;;24.82;100.00;101559.63;5078509;28;20044;-89
2023/08/21 08:47:35;;;;;;;5.28;1.90;;;;;;;24.86;100.00;101557.91;5075275;28;20043;-85
2023/08/21 08:50:06;;;;;;;7.75;1.70;;;;;;;24.32;100.00;101560.50;5077970;28;20040;-86
2023/08/21 08:52:39;;;;;;;5.80;1.70;;;;;;;24.42;100.00;101557.66;5075941;28;20055;-87
2023/08/21 08:55:08;;;;;;;5.95;1.85;;;;;;;24.35;100.00;101564.66;5075027;28;20037;-86
2023/08/21 08:57:35;;;;;;;5.57;1.90;;;;;;;24.96;100.00;101565.38;5068130;28;20373;-85
2023/08/21 09:00:04;;;;;;;7.28;1.67;;;;;;;25.99;100.00;101553.09;5066797;28;20033;-82
2023/08/21 09:02:30;;;;;;;7.68;2.20;;;;;;;26.77;100.00;101557.53;5073876;28;20110;-81
2023/08/21 09:04:56;;;;;;;4.13;1.30;;;;;;;26.34;90.25;101549.28;5071662;28;20036;-86
2023/08/21 09:07:22;;;;;;;6.72;1.65;;;;;;;25.67;93.81;101549.00;5072215;28;20381;-80
2023/08/21 09:09:50;;;;;;;6.47;1.90;;;;;;;26.27;93.75;101556.09;5066075;28;20047;-81
2023/08/21 09:12:17;;;;;;;8.00;1.85;;;;;;;26.20;96.95;101557.59;5039602;28;20390;-84
2023/08/21 09:14:44;;;;;;;6.85;1.60;;;;;;;26.87;90.61;101559.34;5060867;28;20052;-80
2023/08/21 09:17:10;;;;;;;6.93;1.70;;;;;;;26.47;94.25;101559.69;5044230;28;20032;-82
2023/08/21 09:19:37;;;;;;;7.40;1.30;;;;;;;26.08;75.78;101544.03;5064839;28;20029;-83
2023/08/21 09:22:14;;;;;;;4.40;1.30;;;;;;;25.64;92.22;101546.81;5067858;28;20063;-81
2023/08/21 09:24:58;;;;;;;9.13;1.88;;;;;;;25.92;91.30;101546.19;5065478;28;20281;-81
2023/08/21 09:27:24;;;;;;;6.53;1.67;;;;;;;25.96;96.66;101541.66;5058898;28;20033;-80
2023/08/21 09:29:51;;;;;;;6.90;1.80;;;;;;;26.63;94.09;101549.06;5066857;28;20415;-82
2023/08/21 09:32:17;;;;;;;8.90;1.52;;;;;;;26.79;90.06;101546.88;5069746;28;20027;-82
2023/08/21 09:34:43;;;;;;;7.15;1.77;;;;;;;27.43;90.82;101551.91;5049350;28;20039;-82
2023/08/21 09:37:10;;;;;;;4.43;1.63;;;;;;;26.94;91.05;101547.78;5065353;28;20497;-83
2023/08/21 09:39:37;;;;;;;6.20;1.60;;;;;;;27.09;85.56;101550.31;5059798;28;20036;-83
2023/08/21 09:42:07;;;;;;;12.80;2.00;;;;;;;26.45;90.77;101547.97;5069471;28;20040;-86
2023/08/21 09:44:43;;;;;;;9.27;1.80;;;;;;;26.13;93.96;101543.94;5070770;28;20024;-84
2023/08/21 09:47:11;;;;;;;6.40;1.83;;;;;;;26.77;93.89;101553.91;5060052;28;20049;-82
2023/08/21 09:49:39;;;;;;;7.65;1.65;;;;;;;27.32;86.32;101542.03;5059451;28;20127;-82
2023/08/21 09:52:10;;;;;;;7.32;1.98;;;;;;;27.24;86.42;101548.34;5069391;28;20079;-84
2023/08/21 09:54:41;;;;;;;4.47;1.50;;;;;;;27.32;76.50;101541.19;5043991;28;20476;-83
2023/08/21 09:57:08;;;;;;;5.43;1.38;;;;;;;27.89;69.98;101546.53;5057457;28;20469;-83
2023/08/21 09:59:34;;;;;;;8.65;1.58;;;;;;;28.67;67.44;101544.75;5044798;28;20033;-83
2023/08/21 10:02:04;;;;;;;6.07;1.70;;;;;;;29.58;57.61;101533.38;5062592;28;20036;-83
2023/08/21 10:04:34;;;;;;;4.03;1.45;;;;;;;28.14;64.97;101544.28;5064654;28;20160;-84
2023/08/21 10:07:03;;;;;;;6.10;1.30;;;;;;;27.83;70.50;101548.59;5059820;28;20469;-85
2023/08/21 10:09:30;;;;;;;4.22;1.40;;;;;;;28.15;73.30;101543.19;5058597;28;20028;-84
2023/08/21 10:11:57;;;;;;;8.07;1.60;;;;;;;27.61;69.32;101554.09;5061787;28;20061;-80
2023/08/21 10:14:25;;;;;;;6.35;1.40;;;;;;;27.44;72.72;101558.31;5064261;28;20049;-80
2023/08/21 10:16:52;;;;;;;;;;;;;;;27.04;73.16;101558.78;5054837;28;20036;-82
2023/08/21 10:19:19;;;;;;;6.70;1.67;;;;;;;26.38;79.17;101550.31;5062687;28;19947;-79
2023/08/21 10:21:49;;;;;;;9.50;1.92;;;;;;;26.13;88.71;101546.75;5057618;28;20396;-81
2023/08/21 10:24:28;;;;;;;5.07;1.40;;;;;;;27.36;74.42;101543.09;5061229;28;20056;-87
2023/08/21 10:26:57;;;;;;;6.32;1.70;;;;;;;28.40;67.57;101552.97;5066376;28;20159;-82
2023/08/21 10:29:23;;;;;;;6.20;1.52;;;;;;;28.56;71.67;101553.41;5074367;28;20561;-80
2023/08/21 10:32:00;;;;;;;6.07;1.48;;;;;;;28.55;73.77;101564.97;5086598;28;20037;-88
2023/08/21 10:34:37;;;;;;;7.60;1.90;;;;;;;27.51;68.33;101560.75;5078149;28;20048;-82
2023/08/21 10:37:12;;;;;;;8.75;1.85;;;;;;;26.96;71.48;101565.09;5075699;28;20049;-84
2023/08/21 10:39:39;;;;;;;8.65;1.67;;;;;;;26.98;74.25;101565.59;5072405;28;20032;-82
2023/08/21 10:42:09;;;;;;;;;;;;;;;26.30;72.24;101557.44;5072335;28;20044;-81
2023/08/21 10:44:47;;;;;;;5.30;1.33;;;;;;;26.33;72.23;101556.00;5047689;28;19962;-80
2023/08/21 10:47:34;;;;;;;5.50;1.50;;;;;;;26.90;72.62;101550.34;5053549;28;20037;-80
2023/08/21 10:50:08;;;;;;;5.13;0.90;;;;;;;26.52;65.57;101547.59;5072238;28;20036;-80
2023/08/21 10:52:44;;;;;;;5.05;1.20;;;;;;;27.63;63.06;101546.22;5071269;28;20037;-81
2023/08/21 10:55:12;;;;;;;6.35;1.45;;;;;;;27.41;64.82;101548.56;5063470;28;20067;-81